Time;durP1;ratioP1;P1;durP2;ratioP2;P2;SDS_P1;SDS_P2;PMS_P1;PMS_P2;Temp;Humidity;BMP_temperature;BMP_pressure;BME280_temperature;BME280_humidity;BME280_pressure;Samples;Min_cycle;Max_cycle;Signal;HPM_P1;HPM_P2
2021/09/02 00:00:38;0.00;0.00;0.62;0.00;0.00;0.62;10.10;4.70;;;25.30;36.10;;;;;;2261584;61;20718;-60
2021/09/02 00:03:22;0.00;0.00;0.62;0.00;0.00;0.62;6.50;4.50;;;25.30;36.20;;;;;;2261188;61;20358;-59
2021/09/02 00:06:07;0.00;0.00;0.62;0.00;0.00;0.62;7.33;4.40;;;25.30;36.20;;;;;;2261520;61;20362;-63
2021/09/02 00:08:52;0.00;0.00;0.62;0.00;0.00;0.62;7.37;4.10;;;25.20;36.10;;;;;;2261734;61;20374;-60
2021/09/02 00:11:36;0.00;0.00;0.62;0.00;0.00;0.62;6.53;4.57;;;25.30;36.30;;;;;;2260364;61;20417;-60
2021/09/02 00:14:22;0.00;0.00;0.62;0.00;0.00;0.62;5.17;4.40;;;25.30;36.30;;;;;;2261650;61;20397;-62
2021/09/02 00:17:07;0.00;0.00;0.62;0.00;0.00;0.62;6.87;4.97;;;25.30;36.40;;;;;;2261683;61;20541;-62
2021/09/02 00:19:51;0.00;0.00;0.62;0.00;0.00;0.62;6.10;4.67;;;25.30;36.40;;;;;;2260419;61;20358;-61
2021/09/02 00:22:36;0.00;0.00;0.62;0.00;0.00;0.62;4.60;4.13;;;25.40;36.40;;;;;;2261728;61;20389;-62
2021/09/02 00:25:21;0.00;0.00;0.62;0.00;0.00;0.62;5.00;4.20;;;25.40;36.30;;;;;;2261473;61;20358;-61
2021/09/02 00:28:05;0.00;0.00;0.62;0.00;0.00;0.62;6.50;4.97;;;25.40;36.40;;;;;;2261118;61;20648;-61
2021/09/02 00:30:51;0.00;0.00;0.62;0.00;0.00;0.62;9.10;5.20;;;25.40;36.30;;;;;;2261513;61;20389;-60
2021/09/02 00:33:36;0.00;0.00;0.62;0.00;0.00;0.62;7.27;4.70;;;25.40;36.30;;;;;;2260527;61;20366;-61
2021/09/02 00:36:20;0.00;0.00;0.62;0.00;0.00;0.62;6.30;4.50;;;25.40;36.30;;;;;;2261531;61;20374;-60
2021/09/02 00:39:05;0.00;0.00;0.62;0.00;0.00;0.62;6.17;4.40;;;25.40;37.00;;;;;;2261735;61;20405;-61
2021/09/02 00:41:49;0.00;0.00;0.62;0.00;0.00;0.62;6.67;3.93;;;25.40;36.40;;;;;;2260275;61;20470;-61
2021/09/02 00:44:38;0.00;0.00;0.62;0.00;0.00;0.62;6.60;4.87;;;25.40;36.40;;;;;;2261657;61;20417;-61
2021/09/02 00:47:25;0.00;0.00;0.62;0.00;0.00;0.62;5.30;4.43;;;25.40;36.40;;;;;;2261275;61;20378;-61
2021/09/02 00:50:10;0.00;0.00;0.62;0.00;0.00;0.62;5.23;4.23;;;25.50;36.40;;;;;;2261011;61;20366;-62
2021/09/02 00:52:55;0.00;0.00;0.62;0.00;0.00;0.62;6.77;3.70;;;25.50;36.40;;;;;;2261661;61;20416;-61
2021/09/02 00:55:41;0.00;0.00;0.62;0.00;0.00;0.62;6.23;4.43;;;25.50;36.40;;;;;;2260911;61;20365;-60
2021/09/02 00:58:26;0.00;0.00;0.62;0.00;0.00;0.62;7.63;4.40;;;25.50;36.30;;;;;;2262366;61;20665;-61
2021/09/02 01:01:12;0.00;0.00;0.62;0.00;0.00;0.62;6.73;4.13;;;25.50;36.30;;;;;;2262160;61;20382;-62
2021/09/02 01:03:58;0.00;0.00;0.62;0.00;0.00;0.62;5.67;4.17;;;25.50;36.30;;;;;;2261245;61;20354;-61
2021/09/02 01:06:44;0.00;0.00;0.62;0.00;0.00;0.62;5.60;4.20;;;25.50;36.20;;;;;;2262252;61;20381;-61
2021/09/02 01:09:30;0.00;0.00;0.62;0.00;0.00;0.62;5.97;4.60;;;25.50;36.10;;;;;;2261757;61;20934;-60
2021/09/02 01:12:28;0.00;0.00;0.62;0.00;0.00;0.62;7.30;4.50;;;25.50;36.10;;;;;;2261683;61;20745;-60
2021/09/02 01:15:15;0.00;0.00;0.62;0.00;0.00;0.62;7.17;5.03;;;25.50;36.10;;;;;;2262191;61;20435;-60
2021/09/02 01:18:00;0.00;0.00;0.62;0.00;0.00;0.62;5.17;4.30;;;25.50;36.10;;;;;;2261090;61;20358;-60
2021/09/02 01:20:46;0.00;0.00;0.62;0.00;0.00;0.62;9.30;5.53;;;25.50;36.00;;;;;;2262132;61;20358;-61
2021/09/02 01:23:36;0.00;0.00;0.62;0.00;0.00;0.62;7.30;5.80;;;25.50;36.00;;;;;;2262063;61;20362;-62
2021/09/02 01:26:23;0.00;0.00;0.62;0.00;0.00;0.62;5.10;4.40;;;25.50;35.90;;;;;;2261254;61;20772;-60
2021/09/02 01:29:08;0.00;0.00;0.62;0.00;0.00;0.62;6.23;4.47;;;25.50;35.90;;;;;;2262204;61;20398;-61
2021/09/02 01:31:54;0.00;0.00;0.62;0.00;0.00;0.62;4.60;3.80;;;25.50;35.90;;;;;;2261752;61;20393;-61
2021/09/02 01:34:38;0.00;0.00;0.62;0.00;0.00;0.62;5.20;4.70;;;25.50;36.00;;;;;;2261796;61;20378;-62
2021/09/02 01:37:23;0.00;0.00;0.62;0.00;0.00;0.62;6.77;4.67;;;25.50;36.00;;;;;;2261982;61;20350;-62
2021/09/02 01:40:13;0.00;0.00;0.62;0.00;0.00;0.62;4.70;3.80;;;25.50;36.10;;;;;;2260529;61;20357;-61
2021/09/02 01:43:00;0.00;0.00;0.62;0.00;0.00;0.62;8.03;4.47;;;25.50;36.70;;;;;;2262143;61;20358;-60
2021/09/02 01:45:45;0.00;0.00;0.62;0.00;0.00;0.62;5.27;4.40;;;25.50;36.00;;;;;;2261893;61;20373;-61
2021/09/02 01:48:32;0.00;0.00;0.62;0.00;0.00;0.62;9.67;4.50;;;25.50;36.00;;;;;;2261177;61;20378;-60
2021/09/02 01:51:17;0.00;0.00;0.62;0.00;0.00;0.62;6.20;4.63;;;25.50;36.00;;;;;;2261843;61;20436;-61
2021/09/02 01:54:01;0.00;0.00;0.62;0.00;0.00;0.62;7.80;4.70;;;25.50;36.00;;;;;;2261860;61;20409;-60
2021/09/02 01:56:47;0.00;0.00;0.62;0.00;0.00;0.62;5.00;4.03;;;25.50;35.90;;;;;;2265493;61;20369;-60
2021/09/02 01:59:32;0.00;0.00;0.62;0.00;0.00;0.62;7.20;4.30;;;25.50;35.90;;;;;;2265886;61;20357;-63
2021/09/02 02:02:16;0.00;0.00;0.62;0.00;0.00;0.62;5.10;4.60;;;25.50;35.90;;;;;;2265137;61;20385;-61
2021/09/02 02:05:01;0.00;0.00;0.62;0.00;0.00;0.62;5.70;4.87;;;25.50;35.80;;;;;;2266016;61;20389;-60
2021/09/02 02:07:47;0.00;0.00;0.62;0.00;0.00;0.62;5.37;4.50;;;25.50;35.80;;;;;;2265975;61;20436;-60
2021/09/02 02:10:32;0.00;0.00;0.62;0.00;0.00;0.62;6.13;4.47;;;25.50;35.80;;;;;;2264849;61;20725;-60
2021/09/02 02:13:18;0.00;0.00;0.62;0.00;0.00;0.62;7.40;4.77;;;25.50;35.80;;;;;;2266092;61;20377;-60
2021/09/02 02:16:03;0.00;0.00;0.62;0.00;0.00;0.62;6.77;4.80;;;25.50;35.80;;;;;;2265708;61;20361;-62
2021/09/02 02:18:48;0.00;0.00;0.62;0.00;0.00;0.62;6.70;5.30;;;25.50;35.80;;;;;;2265552;61;20361;-61
2021/09/02 02:21:32;0.00;0.00;0.62;0.00;0.00;0.62;5.90;4.50;;;25.50;35.80;;;;;;2265787;61;20674;-61
2021/09/02 02:24:17;0.00;0.00;0.62;0.00;0.00;0.62;6.50;5.17;;;25.50;35.80;;;;;;2264851;61;20854;-61
2021/09/02 02:27:02;0.00;0.00;0.62;0.00;0.00;0.62;7.17;4.60;;;25.50;35.70;;;;;;2265860;61;20733;-61
2021/09/02 02:29:47;0.00;0.00;0.62;0.00;0.00;0.62;6.00;4.80;;;25.40;35.60;;;;;;2265840;61;20434;-60
2021/09/02 02:32:32;0.00;0.00;0.62;0.00;0.00;0.62;7.20;5.03;;;25.40;35.60;;;;;;2264919;61;20492;-59
2021/09/02 02:35:19;0.00;0.00;0.62;0.00;0.00;0.62;6.10;5.53;;;25.40;35.60;;;;;;2265794;61;20407;-60
2021/09/02 02:38:04;0.00;0.00;0.62;0.00;0.00;0.62;7.70;5.33;;;25.30;35.50;;;;;;2265691;61;20396;-60
2021/09/02 02:40:49;0.00;0.00;0.62;0.00;0.00;0.62;9.93;5.80;;;25.30;35.50;;;;;;2265051;61;20384;-61
2021/09/02 02:43:33;0.00;0.00;0.62;0.00;0.00;0.62;7.70;6.37;;;25.20;35.50;;;;;;2265875;61;20353;-62
2021/09/02 02:46:20;0.00;0.00;0.62;0.00;0.00;0.62;8.03;5.53;;;25.20;35.60;;;;;;2265066;61;20376;-60
2021/09/02 02:49:04;0.00;0.00;0.62;0.00;0.00;0.62;6.70;5.30;;;25.20;35.60;;;;;;2265938;61;20357;-60
2021/09/02 02:51:49;0.00;0.00;0.62;0.00;0.00;0.62;8.30;6.10;;;25.10;35.70;;;;;;2265784;61;20804;-61
2021/09/02 02:54:35;0.00;0.00;0.62;0.00;0.00;0.62;9.67;6.87;;;25.10;35.80;;;;;;2264847;61;20348;-62
2021/09/02 02:57:19;0.00;0.00;0.62;0.00;0.00;0.62;7.10;5.80;;;25.00;35.70;;;;;;2265929;61;20634;-61
2021/09/02 03:00:06;0.00;0.00;0.62;0.00;0.00;0.62;6.80;5.50;;;25.00;35.90;;;;;;2266025;61;20420;-62
2021/09/02 03:02:52;0.00;0.00;0.62;0.00;0.00;0.62;8.10;6.53;;;25.00;36.00;;;;;;2265047;61;20439;-60
2021/09/02 03:05:37;0.00;0.00;0.62;0.00;0.00;0.62;9.80;5.90;;;24.90;35.90;;;;;;2265841;61;20356;-62
2021/09/02 03:08:21;0.00;0.00;0.62;0.00;0.00;0.62;8.10;6.60;;;24.90;36.00;;;;;;2265438;61;20435;-60
2021/09/02 03:11:07;0.00;0.00;0.62;0.00;0.00;0.62;8.53;5.87;;;24.90;36.10;;;;;;2265635;61;20417;-61
2021/09/02 03:13:52;0.00;0.00;0.62;0.00;0.00;0.62;8.20;5.90;;;24.90;36.10;;;;;;2265967;61;20385;-61
2021/09/02 03:16:37;0.00;0.00;0.62;0.00;0.00;0.62;7.67;6.03;;;24.80;36.00;;;;;;2264548;61;20369;-61
2021/09/02 03:19:22;0.00;0.00;0.62;0.00;0.00;0.62;12.00;7.30;;;24.80;36.10;;;;;;2265845;61;20364;-61
2021/09/02 03:22:07;0.00;0.00;0.62;0.00;0.00;0.62;7.70;6.37;;;24.80;36.20;;;;;;2265904;61;20527;-62
2021/09/02 03:24:51;0.00;0.00;0.62;0.00;0.00;0.62;8.20;5.80;;;24.80;36.20;;;;;;2264967;61;20408;-61
2021/09/02 03:27:36;0.00;0.00;0.62;0.00;0.00;0.62;6.13;5.47;;;24.80;36.40;;;;;;2265837;61;20380;-60
2021/09/02 03:30:21;0.00;0.00;0.62;0.00;0.00;0.62;6.93;5.63;;;24.70;36.40;;;;;;2265512;61;20415;-59
2021/09/02 03:33:05;0.00;0.00;0.62;0.00;0.00;0.62;7.87;5.13;;;24.70;36.40;;;;;;2265652;61;20372;-61
2021/09/02 03:35:51;0.00;0.00;0.62;0.00;0.00;0.62;7.20;4.93;;;24.80;36.50;;;;;;2265627;61;20385;-60
2021/09/02 03:38:36;0.00;0.00;0.62;0.00;0.00;0.62;7.00;5.60;;;24.80;36.50;;;;;;2264761;61;20480;-60
2021/09/02 03:41:20;0.00;0.00;0.62;0.00;0.00;0.62;7.37;5.50;;;24.80;36.60;;;;;;2265585;61;20452;-59
2021/09/02 03:44:05;0.00;0.00;0.62;0.00;0.00;0.62;6.63;4.87;;;24.80;36.60;;;;;;2265786;61;20395;-62
2021/09/02 03:46:49;0.00;0.00;0.62;0.00;0.00;0.62;8.50;5.77;;;24.90;36.70;;;;;;2264561;61;20419;-61
2021/09/02 03:49:34;0.00;0.00;0.62;0.00;0.00;0.62;8.30;6.30;;;24.90;36.60;;;;;;2265493;61;20429;-59
2021/09/02 03:52:20;0.00;0.00;0.62;0.00;0.00;0.62;6.60;5.00;;;24.90;36.60;;;;;;2265333;61;20408;-61
2021/09/02 03:55:06;0.00;0.00;0.62;0.00;0.00;0.62;6.37;5.70;;;24.90;36.60;;;;;;2265077;61;20443;-61
2021/09/02 03:57:50;0.00;0.00;0.62;0.00;0.00;0.62;7.63;5.27;;;24.90;36.60;;;;;;2265645;61;20421;-61
2021/09/02 04:00:35;0.00;0.00;0.62;0.00;0.00;0.62;9.03;6.10;;;24.90;36.60;;;;;;2264343;61;20415;-61
2021/09/02 04:03:20;0.00;0.00;0.62;0.00;0.00;0.62;5.77;4.90;;;24.90;36.60;;;;;;2265682;61;20388;-61
2021/09/02 04:06:04;0.00;0.00;0.62;0.00;0.00;0.62;8.03;5.47;;;24.90;37.30;;;;;;2265716;61;20368;-62
2021/09/02 04:08:51;0.00;0.00;0.62;0.00;0.00;0.62;7.57;5.77;;;24.90;36.60;;;;;;2264555;61;20388;-61
2021/09/02 04:11:36;0.00;0.00;0.62;0.00;0.00;0.62;6.40;5.17;;;25.00;36.70;;;;;;2265612;61;20376;-60
2021/09/02 04:14:20;0.00;0.00;0.62;0.00;0.00;0.62;7.50;5.10;;;25.00;36.60;;;;;;2265447;61;20714;-61
2021/09/02 04:17:05;0.00;0.00;0.62;0.00;0.00;0.62;6.43;5.07;;;25.00;36.60;;;;;;2264902;61;20354;-61
2021/09/02 04:19:49;0.00;0.00;0.62;0.00;0.00;0.62;5.63;4.90;;;25.00;36.60;;;;;;2265258;61;20760;-61
2021/09/02 04:22:34;0.00;0.00;0.62;0.00;0.00;0.62;10.87;5.67;;;25.00;36.60;;;;;;2264575;61;20408;-61
2021/09/02 04:25:20;0.00;0.00;0.62;0.00;0.00;0.62;6.23;4.80;;;25.00;36.60;;;;;;2265667;61;20481;-61
2021/09/02 04:28:05;0.00;0.00;0.62;0.00;0.00;0.62;7.20;4.80;;;25.00;36.60;;;;;;2265575;61;20385;-61
2021/09/02 04:30:50;0.00;0.00;0.62;0.00;0.00;0.62;7.50;5.87;;;25.10;36.60;;;;;;2264993;61;20406;-60
2021/09/02 04:33:34;0.00;0.00;0.62;0.00;0.00;0.62;7.00;6.10;;;25.10;36.60;;;;;;2266435;61;20816;-61
2021/09/02 04:36:19;0.00;0.00;0.62;0.00;0.00;0.62;6.40;4.77;;;25.10;36.60;;;;;;2266059;61;20353;-61
2021/09/02 04:39:04;0.00;0.00;0.62;0.00;0.00;0.62;5.60;5.00;;;25.10;36.60;;;;;;2265562;61;20399;-60
2021/09/02 04:41:51;0.00;0.00;0.62;0.00;0.00;0.62;7.57;5.17;;;25.10;36.60;;;;;;2266235;61;20425;-60
2021/09/02 04:44:36;0.00;0.00;0.62;0.00;0.00;0.62;7.43;5.67;;;25.10;36.50;;;;;;2265779;61;20385;-61
2021/09/02 04:47:20;0.00;0.00;0.62;0.00;0.00;0.62;6.13;4.53;;;25.10;36.50;;;;;;2266349;61;20431;-62
2021/09/02 04:50:08;0.00;0.00;0.62;0.00;0.00;0.62;7.30;5.40;;;25.20;36.50;;;;;;2266100;61;20571;-61
2021/09/02 04:52:53;0.00;0.00;0.62;0.00;0.00;0.62;6.00;5.00;;;25.20;36.50;;;;;;2265021;61;20458;-62
2021/09/02 04:55:37;0.00;0.00;0.62;0.00;0.00;0.62;8.20;6.43;;;25.20;36.50;;;;;;2266320;61;20356;-62
2021/09/02 04:58:23;0.00;0.00;0.62;0.00;0.00;0.62;7.80;5.27;;;25.20;36.50;;;;;;2266141;61;20469;-61
2021/09/02 05:01:08;0.00;0.00;0.62;0.00;0.00;0.62;7.00;4.90;;;25.20;36.50;;;;;;2265299;61;20380;-62
2021/09/02 05:03:52;0.00;0.00;0.62;0.00;0.00;0.62;6.43;5.70;;;25.20;36.50;;;;;;2266222;61;20349;-61
2021/09/02 05:06:37;0.00;0.00;0.62;0.00;0.00;0.62;4.97;4.47;;;25.20;36.50;;;;;;2266006;61;20357;-62
2021/09/02 05:09:21;0.00;0.00;0.62;0.00;0.00;0.62;7.60;5.47;;;25.20;36.40;;;;;;2266056;61;20357;-61
2021/09/02 05:12:07;0.00;0.00;0.62;0.00;0.00;0.62;5.90;5.23;;;25.20;36.50;;;;;;2266103;61;20408;-62
2021/09/02 05:14:53;0.00;0.00;0.62;0.00;0.00;0.62;6.47;5.17;;;25.20;36.50;;;;;;2265064;61;20365;-62
2021/09/02 05:17:37;0.00;0.00;0.62;0.00;0.00;0.62;6.63;5.53;;;25.20;36.50;;;;;;2266186;61;20373;-59
2021/09/02 05:20:22;0.00;0.00;0.62;0.00;0.00;0.62;8.07;5.73;;;25.20;36.50;;;;;;2266035;61;20354;-61
2021/09/02 05:23:06;0.00;0.00;0.62;0.00;0.00;0.62;7.17;4.33;;;25.20;36.50;;;;;;2265211;61;20352;-62
2021/09/02 05:25:51;0.00;0.00;0.62;0.00;0.00;0.62;6.63;5.33;;;25.20;36.40;;;;;;2266056;61;20407;-62
2021/09/02 05:28:35;0.00;0.00;0.62;0.00;0.00;0.62;7.17;5.37;;;25.30;36.40;;;;;;2265890;61;20377;-60
2021/09/02 05:31:21;0.00;0.00;0.62;0.00;0.00;0.62;6.50;4.90;;;25.20;36.40;;;;;;2265540;61;20385;-62
2021/09/02 05:34:06;0.00;0.00;0.62;0.00;0.00;0.62;6.40;4.90;;;25.20;36.40;;;;;;2266067;61;20361;-62
2021/09/02 05:36:50;0.00;0.00;0.62;0.00;0.00;0.62;8.50;5.60;;;25.20;36.40;;;;;;2264980;61;20384;-61
2021/09/02 05:39:35;0.00;0.00;0.62;0.00;0.00;0.62;7.20;4.97;;;25.30;36.40;;;;;;2265853;61;20715;-62
2021/09/02 05:42:19;0.00;0.00;0.62;0.00;0.00;0.62;5.70;4.60;;;25.30;37.10;;;;;;2266128;61;20373;-62
2021/09/02 05:45:05;0.00;0.00;0.62;0.00;0.00;0.62;7.17;5.40;;;25.20;36.40;;;;;;2264652;61;20356;-62
2021/09/02 05:47:51;0.00;0.00;0.62;0.00;0.00;0.62;8.00;5.93;;;25.30;36.40;;;;;;2265953;61;20423;-60
2021/09/02 05:50:36;0.00;0.00;0.62;0.00;0.00;0.62;8.77;5.83;;;25.30;36.40;;;;;;2265711;61;20357;-61
2021/09/02 05:53:21;0.00;0.00;0.62;0.00;0.00;0.62;7.17;6.27;;;25.30;36.40;;;;;;2265350;61;20417;-62
2021/09/02 05:56:05;0.00;0.00;0.62;0.00;0.00;0.62;11.93;6.00;;;25.30;36.40;;;;;;2266007;61;20357;-62
2021/09/02 05:58:50;0.00;0.00;0.62;0.00;0.00;0.62;8.07;5.93;;;25.20;36.40;;;;;;2265132;61;20357;-62
2021/09/02 06:01:35;0.00;0.00;0.62;0.00;0.00;0.62;9.37;6.30;;;25.20;36.40;;;;;;2265683;61;20377;-62
2021/09/02 06:04:20;0.00;0.00;0.62;0.00;0.00;0.62;6.50;5.40;;;25.20;36.40;;;;;;2266082;61;20393;-60
2021/09/02 06:07:05;0.00;0.00;0.62;0.00;0.00;0.62;6.80;5.37;;;25.20;36.50;;;;;;2264912;61;20361;-60
2021/09/02 06:09:49;0.00;0.00;0.62;0.00;0.00;0.62;8.73;6.90;;;25.20;36.50;;;;;;2265721;61;20381;-62
2021/09/02 06:12:34;0.00;0.00;0.62;0.00;0.00;0.62;8.50;6.30;;;25.20;36.50;;;;;;2265995;61;20432;-62
2021/09/02 06:15:18;0.00;0.00;0.62;0.00;0.00;0.62;6.20;5.60;;;25.20;36.50;;;;;;2265030;61;20357;-63
2021/09/02 06:18:03;0.00;0.00;0.62;0.00;0.00;0.62;6.17;5.43;;;25.20;36.50;;;;;;2266017;61;20396;-61
2021/09/02 06:20:49;0.00;0.00;0.62;0.00;0.00;0.62;7.27;5.10;;;25.20;36.50;;;;;;2265323;61;20353;-61
2021/09/02 06:23:33;0.00;0.00;0.62;0.00;0.00;0.62;8.50;5.60;;;25.20;36.60;;;;;;2265881;61;20452;-61
2021/09/02 06:26:17;0.00;0.00;0.62;0.00;0.00;0.62;6.60;5.70;;;25.20;36.60;;;;;;2266035;61;20392;-61
2021/09/02 06:29:02;0.00;0.00;0.62;0.00;0.00;0.62;6.87;5.70;;;25.20;36.60;;;;;;2264736;61;20427;-61
2021/09/02 06:31:47;0.00;0.00;0.62;0.00;0.00;0.62;6.70;5.70;;;25.30;36.70;;;;;;2265856;61;20381;-62
2021/09/02 06:34:31;0.00;0.00;0.62;0.00;0.00;0.62;6.70;5.63;;;25.30;36.70;;;;;;2266017;61;20373;-62
2021/09/02 06:37:17;0.00;0.00;0.62;0.00;0.00;0.62;10.43;5.97;;;25.20;36.60;;;;;;2264963;61;20423;-61
2021/09/02 06:40:02;0.00;0.00;0.62;0.00;0.00;0.62;8.90;6.40;;;25.30;36.70;;;;;;2265896;61;20376;-60
2021/09/02 06:42:47;0.00;0.00;0.62;0.00;0.00;0.62;8.93;5.40;;;25.20;36.70;;;;;;2265668;61;20381;-61
2021/09/02 06:45:31;0.00;0.00;0.62;0.00;0.00;0.62;6.50;4.90;;;25.30;36.80;;;;;;2265595;61;20384;-61
2021/09/02 06:48:16;0.00;0.00;0.62;0.00;0.00;0.62;7.30;4.53;;;25.30;36.80;;;;;;2265979;61;20412;-61
2021/09/02 06:51:00;0.00;0.00;0.62;0.00;0.00;0.62;7.87;5.40;;;25.30;36.80;;;;;;2264435;61;20710;-61
2021/09/02 06:53:46;0.00;0.00;0.62;0.00;0.00;0.62;8.37;4.57;;;25.30;36.80;;;;;;2265917;61;20361;-61
2021/09/02 06:56:31;0.00;0.00;0.62;0.00;0.00;0.62;7.57;5.50;;;25.30;36.80;;;;;;2265828;61;20357;-62
2021/09/02 06:59:15;0.00;0.00;0.62;0.00;0.00;0.62;6.10;4.27;;;25.30;36.90;;;;;;2264840;61;20360;-61
2021/09/02 07:02:00;0.00;0.00;0.62;0.00;0.00;0.62;6.23;4.70;;;25.30;36.90;;;;;;2265875;61;20435;-61
2021/09/02 07:04:44;0.00;0.00;0.62;0.00;0.00;0.62;8.93;4.60;;;25.30;36.90;;;;;;2265495;61;20380;-60
2021/09/02 07:07:29;0.00;0.00;0.62;0.00;0.00;0.62;7.83;4.87;;;25.40;37.00;;;;;;2265336;61;20416;-62
2021/09/02 07:10:15;0.00;0.00;0.62;0.00;0.00;0.62;7.60;5.07;;;25.40;37.00;;;;;;2265690;61;20364;-61
2021/09/02 07:12:59;0.00;0.00;0.62;0.00;0.00;0.62;5.40;4.40;;;25.40;37.00;;;;;;2264861;61;20364;-58
2021/09/02 07:15:44;0.00;0.00;0.62;0.00;0.00;0.62;6.57;5.20;;;25.40;37.00;;;;;;2265851;61;20480;-61
2021/09/02 07:18:29;0.00;0.00;0.62;0.00;0.00;0.62;5.90;4.60;;;25.50;37.10;;;;;;2265757;61;20352;-61
2021/09/02 07:21:13;0.00;0.00;0.62;0.00;0.00;0.62;5.27;4.47;;;25.50;37.10;;;;;;2264603;61;20412;-60
2021/09/02 07:23:58;0.00;0.00;0.62;0.00;0.00;0.62;6.00;4.73;;;25.50;37.10;;;;;;2265823;61;20353;-60
2021/09/02 07:26:44;0.00;0.00;0.62;0.00;0.00;0.62;6.10;4.50;;;25.50;37.10;;;;;;2264983;61;20356;-61
2021/09/02 07:29:29;0.00;0.00;0.62;0.00;0.00;0.62;5.43;4.47;;;25.50;37.10;;;;;;2265163;61;20457;-61
2021/09/02 07:32:14;0.00;0.00;0.62;0.00;0.00;0.62;5.57;4.40;;;25.60;37.10;;;;;;2265798;61;20381;-61
2021/09/02 07:34:58;0.00;0.00;0.62;0.00;0.00;0.62;7.30;4.80;;;25.60;37.10;;;;;;2264789;61;20380;-61
2021/09/02 07:37:43;0.00;0.00;0.62;0.00;0.00;0.62;5.50;4.10;;;25.60;37.10;;;;;;2265707;61;20430;-62
2021/09/02 07:40:27;0.00;0.00;0.62;0.00;0.00;0.62;6.13;4.30;;;25.70;37.20;;;;;;2265657;61;20353;-60
2021/09/02 07:43:13;0.00;0.00;0.62;0.00;0.00;0.62;5.50;3.73;;;25.70;37.10;;;;;;2264758;61;20361;-61
2021/09/02 07:45:58;0.00;0.00;0.62;0.00;0.00;0.62;7.20;3.73;;;25.70;37.10;;;;;;2265699;61;20465;-61
2021/09/02 07:48:46;0.00;0.00;0.62;0.00;0.00;0.62;5.27;3.90;;;25.70;37.10;;;;;;2265724;61;20384;-61
2021/09/02 07:51:30;0.00;0.00;0.62;0.00;0.00;0.62;5.80;4.37;;;25.70;37.10;;;;;;2264735;61;20420;-61
2021/09/02 07:54:15;0.00;0.00;0.62;0.00;0.00;0.62;5.90;3.67;;;25.80;37.10;;;;;;2265646;61;20717;-59
2021/09/02 07:56:59;0.00;0.00;0.62;0.00;0.00;0.62;6.77;4.10;;;25.80;37.10;;;;;;2265262;61;20360;-61
2021/09/02 07:59:45;0.00;0.00;0.62;0.00;0.00;0.62;5.80;3.73;;;25.80;37.10;;;;;;2265699;61;20713;-62
2021/09/02 08:02:30;0.00;0.00;0.62;0.00;0.00;0.62;5.30;3.73;;;25.80;37.00;;;;;;2265648;61;20384;-64
2021/09/02 08:05:15;0.00;0.00;0.62;0.00;0.00;0.62;5.90;3.60;;;25.80;37.70;;;;;;2265313;61;20652;-62
2021/09/02 08:07:59;0.00;0.00;0.62;0.00;0.00;0.62;7.20;4.20;;;25.80;37.00;;;;;;2266471;61;20457;-60
2021/09/02 08:10:45;0.00;0.00;0.62;0.00;0.00;0.62;8.53;4.13;;;25.90;37.00;;;;;;2266099;61;20360;-59
2021/09/02 08:13:29;0.00;0.00;0.62;0.00;0.00;0.62;6.93;3.73;;;25.90;36.90;;;;;;2265718;61;20376;-60
2021/09/02 08:16:15;0.00;0.00;0.62;0.00;0.00;0.62;5.97;4.13;;;25.90;36.90;;;;;;2266227;61;20384;-61
2021/09/02 08:19:00;0.00;0.00;0.62;0.00;0.00;0.62;5.73;3.70;;;25.90;36.80;;;;;;2266037;61;20489;-60
2021/09/02 08:21:44;0.00;0.00;0.62;0.00;0.00;0.62;8.47;4.67;;;25.90;36.80;;;;;;2266182;61;20380;-61
2021/09/02 08:24:29;0.00;0.00;0.62;0.00;0.00;0.62;5.93;4.40;;;26.00;36.90;;;;;;2266428;61;20433;-61
2021/09/02 08:27:13;0.00;0.00;0.62;0.00;0.00;0.62;6.20;3.87;;;26.00;36.90;;;;;;2265252;61;20368;-61
2021/09/02 08:29:58;0.00;0.00;0.62;0.00;0.00;0.62;6.43;3.70;;;26.00;36.80;;;;;;2266209;61;20360;-60
2021/09/02 08:32:48;0.00;0.00;0.62;0.00;0.00;0.62;5.53;3.40;;;26.00;36.80;;;;;;2266345;61;20404;-62
2021/09/02 08:35:34;0.00;0.00;0.62;0.00;0.00;0.62;7.10;4.40;;;26.00;36.80;;;;;;2265373;61;20812;-62
2021/09/02 08:38:19;0.00;0.00;0.62;0.00;0.00;0.62;4.17;3.60;;;26.10;36.70;;;;;;2266301;61;20755;-62
2021/09/02 08:41:04;0.00;0.00;0.62;0.00;0.00;0.62;7.10;4.20;;;26.10;36.70;;;;;;2265930;61;20379;-61
2021/09/02 08:43:49;0.00;0.00;0.62;0.00;0.00;0.62;11.70;4.80;;;26.10;36.60;;;;;;2265975;61;20361;-62
2021/09/02 08:46:34;0.00;0.00;0.62;0.00;0.00;0.62;6.37;5.40;;;26.10;36.50;;;;;;2266269;61;20582;-62
2021/09/02 08:49:23;0.00;0.00;0.62;0.00;0.00;0.62;8.87;4.67;;;26.10;36.30;;;;;;2265274;61;20372;-61
2021/09/02 08:52:07;0.00;0.00;0.62;0.00;0.00;0.62;5.07;4.03;;;26.10;36.30;;;;;;2266449;61;20389;-59
2021/09/02 08:54:52;0.00;0.00;0.62;0.00;0.00;0.62;6.50;4.37;;;26.10;36.40;;;;;;2266302;61;20421;-61
2021/09/02 08:57:37;0.00;0.00;0.62;0.00;0.00;0.62;8.27;5.00;;;26.10;36.40;;;;;;2265419;61;20369;-60
2021/09/02 09:00:25;0.00;0.00;0.62;0.00;0.00;0.62;8.60;5.13;;;26.00;36.30;;;;;;2266184;61;20368;-60
2021/09/02 09:03:10;0.00;0.00;0.62;0.00;0.00;0.62;8.83;5.57;;;26.00;36.30;;;;;;2265957;61;20362;-63
2021/09/02 09:06:06;0.00;0.00;0.62;0.00;0.00;0.62;8.03;4.73;;;26.00;36.40;;;;;;2265652;61;20361;-62
2021/09/02 09:08:51;0.00;0.00;0.62;0.00;0.00;0.62;6.70;5.40;;;26.00;36.40;;;;;;2266269;61;20396;-62
2021/09/02 09:11:43;0.00;0.00;0.62;0.00;0.00;0.62;6.80;4.17;;;26.00;36.50;;;;;;2265122;61;20482;-62
2021/09/02 09:14:28;0.00;0.00;0.62;0.00;0.00;0.62;7.57;4.50;;;26.00;36.50;;;;;;2265997;61;20363;-62
2021/09/02 09:17:23;0.00;0.00;0.62;0.00;0.00;0.62;8.30;4.93;;;26.00;36.50;;;;;;2266173;61;20408;-62
2021/09/02 09:20:10;0.00;0.00;0.62;0.00;0.00;0.62;9.70;5.60;;;26.00;36.50;;;;;;2265294;61;20448;-63
2021/09/02 09:22:59;0.00;0.00;0.62;0.00;0.00;0.62;5.67;4.13;;;26.00;36.50;;;;;;2266189;61;20772;-62
2021/09/02 09:25:51;0.00;0.00;0.62;0.00;0.00;0.62;7.27;5.00;;;26.10;36.60;;;;;;2265635;61;20598;-60
2021/09/02 09:28:35;0.00;0.00;0.62;0.00;0.00;0.62;8.33;5.60;;;26.10;36.50;;;;;;2266132;61;20401;-63
2021/09/02 09:31:26;0.00;0.00;0.62;0.00;0.00;0.62;6.30;4.93;;;26.10;36.40;;;;;;2265937;61;20450;-63
2021/09/02 09:34:11;0.00;0.00;0.62;0.00;0.00;0.62;5.63;4.20;;;26.10;36.50;;;;;;2265087;61;20365;-64
2021/09/02 09:37:06;0.00;0.00;0.62;0.00;0.00;0.62;8.60;4.40;;;26.20;36.60;;;;;;2266158;61;20360;-65
2021/09/02 09:39:52;0.00;0.00;0.62;0.00;0.00;0.62;5.07;4.57;;;26.20;36.60;;;;;;2265990;61;20388;-66
2021/09/02 09:42:37;0.00;0.00;0.62;0.00;0.00;0.62;6.27;4.80;;;26.20;36.50;;;;;;2265306;61;20388;-64
2021/09/02 09:45:36;0.00;0.00;0.62;0.00;0.00;0.62;4.87;3.50;;;26.20;36.50;;;;;;2266048;61;20673;-64
2021/09/02 09:48:42;0.00;0.00;0.62;0.00;0.00;0.62;5.97;3.70;;;26.20;36.50;;;;;;2265061;61;20610;-64
2021/09/02 09:51:27;0.00;0.00;0.62;0.00;0.00;0.62;4.70;3.80;;;26.30;36.50;;;;;;2265931;61;20379;-64
2021/09/02 09:54:24;0.00;0.00;0.62;0.00;0.00;0.62;6.30;4.17;;;26.30;36.50;;;;;;2266192;61;20411;-64
2021/09/02 09:57:10;0.00;0.00;0.62;0.00;0.00;0.62;5.63;4.50;;;26.30;36.50;;;;;;2265114;61;20400;-67
2021/09/02 09:59:59;0.00;0.00;0.62;0.00;0.00;0.62;4.00;3.60;;;26.30;36.40;;;;;;2266116;61;20381;-67
2021/09/02 10:02:48;0.00;0.00;0.62;0.00;0.00;0.62;5.87;4.10;;;26.30;36.30;;;;;;2265584;61;20400;-67
2021/09/02 10:05:33;0.00;0.00;0.62;0.00;0.00;0.62;8.30;4.83;;;26.40;36.40;;;;;;2265967;61;20369;-64
2021/09/02 10:08:19;0.00;0.00;0.62;0.00;0.00;0.62;4.70;4.00;;;26.40;36.30;;;;;;2266074;61;20392;-65
2021/09/02 10:11:07;0.00;0.00;0.62;0.00;0.00;0.62;4.43;3.90;;;26.30;36.20;;;;;;2264718;61;20423;-66
2021/09/02 10:13:53;0.00;0.00;0.62;0.00;0.00;0.62;4.43;3.70;;;26.40;36.30;;;;;;2266118;61;20349;-65
2021/09/02 10:16:39;0.00;0.00;0.62;0.00;0.00;0.62;4.77;3.63;;;26.40;36.20;;;;;;2265952;61;20489;-64
2021/09/02 10:19:26;0.00;0.00;0.62;0.00;0.00;0.62;4.43;3.80;;;26.50;36.20;;;;;;2265137;61;20356;-67
2021/09/02 10:22:12;0.00;0.00;0.62;0.00;0.00;0.62;5.40;4.20;;;26.40;36.10;;;;;;2266276;61;20380;-66
2021/09/02 10:24:56;0.00;0.00;0.62;0.00;0.00;0.62;5.03;4.50;;;26.50;36.10;;;;;;2265432;61;20429;-67
2021/09/02 10:27:41;0.00;0.00;0.62;0.00;0.00;0.62;5.47;4.23;;;26.50;36.10;;;;;;2265787;61;20455;-65
2021/09/02 10:30:28;0.00;0.00;0.62;0.00;0.00;0.62;6.27;4.80;;;26.50;36.10;;;;;;2265836;61;20579;-67
2021/09/02 10:33:35;0.00;0.00;0.62;0.00;0.00;0.62;4.63;4.07;;;26.50;36.00;;;;;;2264806;61;20380;-66
2021/09/02 10:36:43;0.00;0.00;0.62;0.00;0.00;0.62;5.20;3.73;;;26.50;36.00;;;;;;2265956;61;20356;-65
2021/09/02 10:39:43;0.00;0.00;0.62;0.00;0.00;0.62;5.30;4.23;;;26.50;36.00;;;;;;2265643;61;20423;-64
2021/09/02 10:42:45;0.00;0.00;0.62;0.00;0.00;0.62;7.13;4.70;;;26.60;36.10;;;;;;2266020;61;20529;-66
2021/09/02 10:45:35;0.00;0.00;0.62;0.00;0.00;0.62;4.33;3.93;;;26.50;36.00;;;;;;2265833;61;20364;-65
2021/09/02 10:48:20;0.00;0.00;0.62;0.00;0.00;0.62;4.87;3.97;;;26.60;36.10;;;;;;2264890;61;20389;-67
2021/09/02 10:51:33;0.00;0.00;0.62;0.00;0.00;0.62;4.40;3.53;;;26.60;36.00;;;;;;2265723;61;20840;-65
2021/09/02 10:54:23;0.00;0.00;0.62;0.00;0.00;0.62;6.73;4.10;;;26.60;36.00;;;;;;2265578;61;20361;-64